Open VTT Dunes de Flandre 2021 - Beachrace- Dunkerque

Epreuve sélectionnée:


33km - Résultats Scratch

Filtre:

Partants Général Top 5



Recherche:

N° dossard
Nom
Club
33km - Classement arrivée
Clt Athlète Nat. Club Temps Sexe Cat Lap1 Lap2
0 665 ?Dossard #665 00:00:00 M (0e) - (0e) 00:38:21 (58e) 00:41:55 (56e)
0 578 BARTOS Jean francois 00:00:00 M (0e) Master 2 (0e) 00:41:36 (76e) 00:47:24 (77e)
0 616 BAUDE Sebastien 00:00:00 M (0e) Master 3 (0e) 00:38:56 (62e) 00:41:16 (53e)
0 621 BAUDUIN Laurent 00:00:00 M (0e) Master 2 (0e) 00:42:32 (86e) 00:57:06 (94e)
0 516 BEAUVISAGE Maxime 00:00:00 M (0e) Master 1 (0e) 00:40:05 (68e) 00:43:15 (61e)
0 524 BECQ Jean-luc DUNKERQUE CYCLO 00:00:00 M (0e) Master 4 (0e) 00:34:58 (36e) 00:40:12 (49e)
0 599 BOUCHER Sebastien VTT DES 2 CAPS 00:00:00 M (0e) Master 1 (0e) 00:38:08 (57e) 00:43:55 (67e)
0 572 BOUSSEMAERE Louic CT HOUTLAND WESTKUST 00:00:00 M (0e) Jeunes (0e) 00:31:39 (13e) 00:33:57 (13e)
0 575 BOUTILLIER Laurent TEAM OISE ORGANISATION 00:00:00 M (0e) Master 4 (0e) 00:35:08 (39e) 00:39:17 (43e)
0 519 BROUCKAERT Gauthier TRIATHLON CLUB DE LIEVIN 00:00:00 M (0e) Master 1 (0e) 00:38:04 (56e) 00:43:01 (60e)
0 528 BULTE David 00:00:00 M (0e) Master 2 (0e) 00:42:08 (81e) 00:47:40 (78e)


33km - Live en cours
Clt Athlète Nat. Club Temps Sexe Cat Lap1 Lap2
0 560 BULTE Olivier TEAM PINK AND BLUE VTT 00:00:00 M (0e) Master 1 (0e) 00:00:00 (0) 00:00:00 (0)


33km - Classement arrivée
Clt Athlète Nat. Club Temps Sexe Cat Lap1 Lap2
0 602 BULTINCK Andy WILLEMPIES 00:00:00 M (0e) Master 2 (0e) 00:30:23 (9e) 00:33:32 (7e)
0 608 CALLEWAERT Ian TALPA CYCLING TEAM 00:00:00 M (0e) Master 1 (0e) 00:30:20 (6e) 00:31:38 (4e)


33km - Attente 1er pointage
Clt Athlète Nat. Club Temps Sexe Cat Lap1 Lap2
0 597 CAMPAGNE David 00:00:00 M (0e) Master 2 (0e) 00:00:00 (0) 00:00:00 (0)


33km - Classement arrivée
Clt Athlète Nat. Club Temps Sexe Cat Lap1 Lap2
0 552 CARAMIA Antoine TRIATHLON LITTORAL 59 00:00:00 M (0e) Jeunes (0e) 00:37:26 (48e) 00:39:31 (46e)
0 562 CARON Aurelien OYE BEACH 00:00:00 M (0e) Master 1 (0e) 00:32:28 (16e) 00:33:40 (9e)
0 589 CARPENTIER Thierry LYS CALAIS TRIATHLON 00:00:00 M (0e) Master 3 (0e) 00:39:20 (64e) 00:43:22 (63e)
0 584 CARPENTIER Yanis LYS CALAIS TRIATHLON 00:00:00 M (0e) Jeunes (0e) 00:30:24 (10e) 00:00:00 (0)
0 515 CASTELAIN Jean-louis 00:00:00 M (0e) Master 3 (0e) 00:43:07 (89e) 00:51:56 (88e)
0 571 CHAVAIN Hugo VC ST OMER 00:00:00 M (0e) Senior (0e) 00:42:29 (85e) 00:51:51 (87e)
0 626 CHOISEZ ROMAIN 00:00:00 M (0e) Master 1 (0e) 00:37:31 (51e) 00:38:31 (36e)
0 540 DAVAINE Hugues V8 BEACH TEAM 00:00:00 M (0e) Master 3 (0e) 00:32:36 (20e) 00:36:09 (22e)
0 613 DAVIN Jean-paul CYCLES REPARATION 00:00:00 M (0e) Senior (0e) 00:41:54 (77e) 00:47:22 (76e)
0 581 DECROOCQ Aymeric 00:00:00 M (0e) Senior (0e) 00:40:07 (69e) 00:51:41 (86e)
0 564 DEGRUTERE Gatien UVC CALAIS 00:00:00 M (0e) Jeunes (0e) 00:31:30 (11e) 00:34:37 (16e)
0 595 DELECOLLE Nicolas 00:00:00 M (0e) Master 2 (0e) 00:46:34 (94e) 00:49:07 (82e)
0 620 DEPRIESTER Michael 00:00:00 M (0e) Master 2 (0e) 00:41:24 (75e) 00:43:48 (66e)
0 607 DEROO Romain 00:00:00 M (0e) Jeunes (0e) 00:39:27 (65e) 00:43:40 (65e)


33km - Attente 1er pointage
Clt Athlète Nat. Club Temps Sexe Cat Lap1 Lap2
0 585 DESAL Jan GRANDFONDOTEAM.BE 00:00:00 M (0e) Master 3 (0e) 00:00:00 (0) 00:00:00 (0)


33km - Classement arrivée
Clt Athlète Nat. Club Temps Sexe Cat Lap1 Lap2
0 604 DESFONTAINES Julie 00:00:00 F (0e) Senior (0e) 00:37:30 (50e) 00:38:39 (38e)
0 512 DEVERNAY Stephane 00:00:00 M (0e) Master 3 (0e) 00:45:57 (91e) 00:50:08 (84e)


33km - Live en cours
Clt Athlète Nat. Club Temps Sexe Cat Lap1 Lap2
0 614 DEVOLDER Jean-bernard O MAX TEAM 00:00:00 M (0e) Master 3 (0e) 00:00:00 (0) 00:00:00 (0)


33km - Classement arrivée
Clt Athlète Nat. Club Temps Sexe Cat Lap1 Lap2
0 617 DEVREESE Arnaud 00:00:00 M (0e) Jeunes (0e) 00:47:22 (97e) 01:00:15 (97e)


33km - Attente 1er pointage
Clt Athlète Nat. Club Temps Sexe Cat Lap1 Lap2
0 535 DEWAELE Jerome US GRAVELINOISE 00:00:00 M (0e) Master 1 (0e) 00:00:00 (0) 00:00:00 (0)


33km - Classement arrivée
Clt Athlète Nat. Club Temps Sexe Cat Lap1 Lap2
0 590 DOUCHET Jean michel 00:00:00 M (0e) Master 3 (0e) 01:01:35 (107e) 01:04:14 (103e)
0 561 DUBRULLE Franck 00:00:00 M (0e) Master 3 (0e) 00:41:14 (73e) 00:42:28 (59e)
0 530 DUCLOY Eddy LYS CALAIS TRIATHLON 00:00:00 M (0e) Master 3 (0e) 00:37:25 (47e) 00:38:35 (37e)
0 536 DUMONT Anthony O GRANDE SYNTHE 00:00:00 M (0e) Jeunes (0e) 00:37:14 (45e) 00:39:52 (47e)
0 567 DUPAS Remy TRIATHLON LITTORAL 59 00:00:00 M (0e) Master 1 (0e) 00:43:06 (88e) 00:53:26 (89e)
0 537 DUQUENNE Christophe AMIS DU PONT GIBUS 00:00:00 M (0e) Master 3 (0e) 01:03:13 (109e) 01:09:52 (105e)
0 544 DUVAL Sebastien LYS CALAIS TRIATHLON 00:00:00 M (0e) Master 2 (0e) 00:40:10 (71e) 00:45:12 (74e)
0 623 DUYTSCHE Vivian 00:00:00 M (0e) Master 1 (0e) 00:36:43 (41e) 00:37:42 (34e)
0 587 EECKEMAN Thomas DUNKERQUE CYCLO 00:00:00 M (0e) Master 1 (0e) 00:37:22 (46e) 00:39:11 (40e)
0 624 EXPEELS TJORVEN 00:00:00 M (0e) - (0e) 00:29:06 (5e) 00:30:51 (2e)
0 610 FOLLET Isaie ES ARQUES 00:00:00 M (0e) Jeunes (0e) 00:32:38 (21e) 00:35:31 (20e)
0 611 FOURNIER Kevin AYR 00:00:00 M (0e) Master 1 (0e) 00:34:52 (33e) 00:37:26 (32e)
0 534 FOURRIER Vincent CL BARLIN 00:00:00 M (0e) Senior (0e) 00:27:44 (1e) 00:28:57 (1e)
0 605 GAGNOUX Jerôme 00:00:00 M (0e) Master 2 (0e) 00:55:00 (104e) 00:00:00 (0)
0 549 GELU Augustin TRIATHLON LITTORAL 59 00:00:00 M (0e) Jeunes (0e) 00:50:56 (99e) 01:03:13 (102e)
0 502 GROSSEL Stephanie 00:00:00 F (0e) Master 1 (0e) 00:47:18 (96e) 00:54:09 (92e)
0 508 HAGYMASI Annelies GRANDFONDOTEAM.BE 00:00:00 F (0e) Master 2 (0e) 00:41:19 (74e) 00:41:56 (57e)
0 603 HALLUIN Xavier TEAM PINK AND BLUE VTT 00:00:00 M (0e) Master 2 (0e) 00:40:36 (72e) 00:44:42 (73e)
0 551 HANQUEZ Rudy TRIATHLON CLUB DU MONTREUILLOIS 00:00:00 M (0e) Master 2 (0e) 00:42:12 (82e) 00:44:13 (69e)
0 580 HENNNEBELLE Yohan VC ST OMER 00:00:00 M (0e) Senior (0e) 00:41:54 (78e) 00:48:49 (79e)
0 558 HENNUYER Romain 00:00:00 M (0e) Senior (0e) 00:37:14 (44e) 00:38:51 (39e)
0 596 HENU Benjamin LYS CALAIS TRIATHLON 00:00:00 M (0e) Master 1 (0e) 00:32:54 (26e) 00:36:21 (23e)
0 527 HERMANS Mischa 00:00:00 M (0e) Jeunes (0e) 00:32:50 (23e) 00:34:48 (17e)
0 615 HETTINGER Ludovic TEAM PERFORMANCE CYCLING 00:00:00 M (0e) Master 1 (0e) 00:31:44 (14e) 00:34:57 (18e)
0 592 HOLLEBEQUE Steve TEAM POLICE HDFN 00:00:00 M (0e) Master 2 (0e) 00:38:59 (63e) 00:43:18 (62e)
0 511 HOYER Michael 00:00:00 M (0e) Master 3 (0e) 00:52:36 (100e) 01:01:12 (98e)
0 545 HU Alexandre USO BRUAY-LA-BUISSIERE 00:00:00 M (0e) Master 1 (0e) 00:32:29 (17e) 00:33:47 (11e)
0 532 LALOUETTE Olivier FFCT INDIVIDUEL 00:00:00 M (0e) Master 3 (0e) 00:55:06 (105e) 01:09:40 (104e)
0 622 LECLERCQ Alexis 00:00:00 M (0e) Master 2 (0e) 00:42:42 (87e) 00:53:42 (90e)
0 554 LECOINTE Olivier CL BARLIN 00:00:00 M (0e) Master 2 (0e) 00:30:22 (8e) 00:33:47 (10e)
0 553 LECOINTE Valentin CL BARLIN